Terminal Aerodrome Forecast
Issued by NWS

Home | Current Version | Previous Version | Text Only | Print | Product List | Glossary On
Versions: 1 2 3 4 5 6 7 8 9 10 11 12 13
000
FTUS45 KRIW 232330
TAFLND
TAF
KLND 232330Z 2400/2424 30014G22KT P6SM FEW110
     FM240100 35007KT P6SM FEW120
     FM240400 29005KT P6SM SKC
     FM241500 05006KT P6SM SCT150
     FM242200 05008KT P6SM VCSH SCT060 BKN120=

USA.gov is the U.S. government's official web portal to all federal, state and local government web resources and services.